Time;durP1;ratioP1;P1;durP2;ratioP2;P2;SDS_P1;SDS_P2;PMS_P1;PMS_P2;Temp;Humidity;BMP_temperature;BMP_pressure;BME280_temperature;BME280_humidity;BME280_pressure;Samples;Min_cycle;Max_cycle;Signal;HPM_P1;HPM_P2
2024/01/31 00:00:27;;;;;;;2.13;0.80;;;;;;;17.33;51.84;103168.84;10412023;28;20315;-59
2024/01/31 00:05:27;;;;;;;2.00;0.70;;;;;;;17.31;52.30;103161.03;10411432;28;20384;-60
2024/01/31 00:10:27;;;;;;;3.70;0.83;;;;;;;17.33;52.35;103174.22;10428319;28;20528;-60
2024/01/31 00:15:28;;;;;;;1.77;0.82;;;;;;;17.33;52.30;103166.19;10451110;28;20283;-59
2024/01/31 00:20:30;;;;;;;1.83;0.80;;;;;;;17.32;51.02;103184.13;10452339;28;20043;-60
2024/01/31 00:25:30;;;;;;;3.47;0.77;;;;;;;17.34;51.13;103184.72;10451834;28;20033;-60
2024/01/31 00:30:31;;;;;;;4.38;1.00;;;;;;;17.30;51.05;103205.00;10445073;28;20025;-60
2024/01/31 00:35:31;;;;;;;1.87;0.90;;;;;;;17.32;50.99;103216.31;10410470;28;20025;-60
2024/01/31 00:40:31;;;;;;;6.60;1.47;;;;;;;17.31;51.65;103219.22;10410488;28;20280;-60
2024/01/31 00:45:32;;;;;;;1.80;0.75;;;;;;;17.33;50.76;103225.19;10408565;28;20288;-61
2024/01/31 00:50:32;;;;;;;1.60;0.73;;;;;;;17.33;51.20;103222.50;10410316;28;20029;-60
2024/01/31 00:55:32;;;;;;;3.87;0.80;;;;;;;17.31;50.86;103222.72;10408458;28;20275;-60
2024/01/31 01:00:33;;;;;;;1.90;0.70;;;;;;;17.31;50.64;103220.03;10409724;28;20309;-59
2024/01/31 01:05:33;;;;;;;2.75;1.02;;;;;;;17.30;50.88;103233.69;10408610;28;20346;-59
2024/01/31 01:10:33;;;;;;;2.27;1.20;;;;;;;17.33;50.86;103233.22;10422267;28;20078;-59
2024/01/31 01:15:34;;;;;;;1.77;0.63;;;;;;;17.31;50.93;103230.78;10408884;28;20284;-60
2024/01/31 01:20:34;;;;;;;1.33;0.60;;;;;;;17.31;51.71;103220.03;10409468;28;20284;-59
2024/01/31 01:25:34;;;;;;;1.40;0.40;;;;;;;17.33;50.44;103217.13;10407461;28;20029;-60
2024/01/31 01:30:35;;;;;;;1.27;0.50;;;;;;;17.34;51.07;103221.44;10409059;28;20350;-59
2024/01/31 01:35:35;;;;;;;1.37;0.80;;;;;;;17.34;50.72;103216.91;10407263;28;20739;-60
2024/01/31 01:40:36;;;;;;;1.98;0.75;;;;;;;17.32;50.57;103216.31;10408943;28;20371;-59
2024/01/31 01:45:36;;;;;;;2.05;0.40;;;;;;;17.34;50.93;103218.75;10406951;28;20044;-60
2024/01/31 01:50:36;;;;;;;1.80;0.73;;;;;;;17.34;51.29;103208.84;10408845;28;20052;-60
2024/01/31 01:55:39;;;;;;;2.60;0.85;;;;;;;17.33;50.68;103225.19;10408024;28;20354;-60
2024/01/31 02:00:42;;;;;;;2.70;1.10;;;;;;;17.36;50.79;103227.41;10407332;28;20349;-61
2024/01/31 02:05:46;;;;;;;1.15;0.50;;;;;;;17.33;51.53;103226.00;10407975;28;20040;-61
2024/01/31 02:10:46;;;;;;;3.08;0.90;;;;;;;17.34;51.24;103224.13;10419492;28;20101;-60
2024/01/31 02:16:04;;;;;;;2.07;0.60;;;;;;;17.33;50.67;103209.09;10407811;28;20394;-60
2024/01/31 02:21:05;;;;;;;1.33;0.50;;;;;;;17.33;51.66;103220.63;10416388;28;20284;-60
2024/01/31 02:26:05;;;;;;;1.70;0.60;;;;;;;17.33;50.81;103220.63;10415156;28;20022;-60
2024/01/31 02:31:05;;;;;;;2.20;0.83;;;;;;;17.37;53.14;103221.81;10414948;28;20284;-60
2024/01/31 02:36:06;;;;;;;1.30;0.50;;;;;;;17.51;53.62;103217.06;10414928;28;20288;-59
2024/01/31 02:41:07;;;;;;;1.35;0.73;;;;;;;17.56;53.31;103216.41;10413703;28;20287;-60
2024/01/31 02:46:07;;;;;;;1.27;0.57;;;;;;;17.53;54.08;103213.16;10413359;28;20028;-60
2024/01/31 02:51:08;;;;;;;1.77;0.80;;;;;;;17.53;54.15;103215.00;10415120;28;20029;-60
2024/01/31 02:56:11;;;;;;;1.80;0.60;;;;;;;17.50;52.97;103202.84;10414342;28;20365;-60
2024/01/31 03:01:11;;;;;;;2.67;0.65;;;;;;;17.50;52.57;103199.34;10414441;28;20649;-61
2024/01/31 03:06:11;;;;;;;1.13;0.53;;;;;;;17.48;52.05;103198.75;10413924;28;20029;-61
2024/01/31 03:11:12;;;;;;;1.17;0.50;;;;;;;17.49;53.28;103177.06;10426529;28;20826;-60
2024/01/31 03:16:12;;;;;;;2.23;0.80;;;;;;;17.49;53.09;103173.56;10413449;28;20300;-61
2024/01/31 03:21:12;;;;;;;2.28;0.57;;;;;;;17.47;52.89;103171.13;10413641;28;20283;-60
2024/01/31 03:26:13;;;;;;;0.70;0.47;;;;;;;17.46;52.65;103171.34;10413090;28;20029;-60
2024/01/31 03:31:13;;;;;;;1.07;0.50;;;;;;;17.45;52.73;103175.09;10425588;28;20283;-60
2024/01/31 03:36:14;;;;;;;1.73;0.60;;;;;;;17.47;52.40;103178.34;10452501;28;20278;-60
2024/01/31 03:41:14;;;;;;;2.75;0.60;;;;;;;17.42;52.08;103173.69;10453208;28;20055;-60
2024/01/31 03:46:14;;;;;;;1.07;0.50;;;;;;;17.36;52.73;103163.84;10453467;28;20033;-59
2024/01/31 03:51:22;;;;;;;1.20;0.53;;;;;;;17.40;52.51;103166.88;10453816;28;20679;-60
2024/01/31 03:56:23;;;;;;;1.63;0.70;;;;;;;17.35;52.84;103162.22;10451800;28;20267;-60
2024/01/31 04:01:23;;;;;;;2.58;0.60;;;;;;;17.34;51.85;103160.59;10453294;28;20086;-60
2024/01/31 04:06:23;;;;;;;1.27;0.47;;;;;;;17.35;52.47;103145.31;10452702;28;20040;-60
2024/01/31 04:11:23;;;;;;;1.80;0.63;;;;;;;17.34;52.37;103155.22;10428078;28;20353;-61
2024/01/31 04:16:24;;;;;;;0.67;0.30;;;;;;;17.36;51.64;103137.03;10411057;28;20288;-60
2024/01/31 04:21:24;;;;;;;1.25;0.43;;;;;;;17.33;52.34;103142.03;10411285;28;20290;-61
2024/01/31 04:26:24;;;;;;;1.42;0.50;;;;;;;17.34;51.52;103139.13;10410499;28;20432;-60
2024/01/31 04:31:25;;;;;;;1.73;0.70;;;;;;;17.32;52.52;103145.78;10436450;28;20036;-60
2024/01/31 04:36:25;;;;;;;1.87;0.50;;;;;;;17.30;52.56;103147.88;10418038;28;20529;-59
2024/01/31 04:41:25;;;;;;;2.93;0.43;;;;;;;17.40;52.35;103142.75;10412862;28;20359;-58
2024/01/31 04:46:26;;;;;;;4.13;0.68;;;;;;;17.37;53.09;103146.72;10425576;28;20294;-59
2024/01/31 04:51:27;;;;;;;1.67;0.60;;;;;;;17.34;52.07;103151.72;10425172;28;20676;-58
2024/01/31 04:56:27;;;;;;;3.60;0.85;;;;;;;17.36;52.43;103142.41;10425012;28;20280;-59
2024/01/31 05:01:28;;;;;;;2.60;0.43;;;;;;;17.34;52.01;103147.19;10424551;28;20021;-59
2024/01/31 05:06:28;;;;;;;2.83;0.50;;;;;;;17.28;53.13;103142.72;10410777;28;20284;-58
2024/01/31 05:11:29;;;;;;;3.28;1.25;;;;;;;17.26;52.59;103136.75;10421004;28;20022;-57
2024/01/31 05:16:29;;;;;;;1.67;0.55;;;;;;;17.23;51.46;103142.59;10408780;28;20187;-58
2024/01/31 05:21:29;;;;;;;1.53;0.40;;;;;;;17.27;53.09;103150.97;10409173;28;20040;-57
2024/01/31 05:26:30;;;;;;;1.97;0.43;;;;;;;17.26;51.92;103147.50;10425165;28;20296;-58
2024/01/31 05:31:31;;;;;;;1.60;0.43;;;;;;;17.23;52.44;103162.16;10432870;28;20275;-58
2024/01/31 05:36:32;;;;;;;2.22;0.43;;;;;;;17.25;52.15;103151.22;10444059;28;20275;-57
2024/01/31 05:41:32;;;;;;;1.05;0.45;;;;;;;17.24;51.86;103141.53;10408576;28;20037;-58
2024/01/31 05:46:33;;;;;;;3.13;0.40;;;;;;;17.27;51.06;103140.25;10418638;28;20028;-56
2024/01/31 05:51:33;;;;;;;1.00;0.38;;;;;;;17.30;51.82;103137.16;10406503;28;20290;-57
2024/01/31 05:56:36;;;;;;;1.52;0.50;;;;;;;17.29;52.32;103144.38;10413164;28;20029;-57
2024/01/31 06:01:37;;;;;;;5.47;0.90;;;;;;;17.35;52.27;103148.81;10415150;28;20018;-57
2024/01/31 06:06:37;;;;;;;7.18;1.65;;;;;;;17.53;51.45;103137.22;10414987;28;20029;-59
2024/01/31 06:11:38;;;;;;;3.75;0.70;;;;;;;17.48;53.19;103123.66;10427547;28;20037;-58
2024/01/31 06:16:38;;;;;;;5.20;0.77;;;;;;;17.46;52.42;103115.84;10414007;28;20115;-58
2024/01/31 06:21:38;;;;;;;13.73;1.67;;;;;;;17.42;53.64;103106.63;10415885;28;20028;-56
2024/01/31 06:26:40;;;;;;;11.40;1.60;;;;;;;17.38;53.93;103104.63;10415661;28;20806;-57
2024/01/31 06:31:47;;;;;;;8.60;1.63;;;;;;;17.28;52.64;103090.94;10415513;28;20029;-57
2024/01/31 06:36:47;;;;;;;8.52;2.05;;;;;;;17.26;54.85;103077.78;10415408;28;20028;-58
2024/01/31 06:41:47;;;;;;;12.43;2.80;;;;;;;17.26;54.77;103069.72;10414676;28;20039;-60
2024/01/31 06:46:50;;;;;;;13.57;3.60;;;;;;;17.23;54.42;103087.09;10414895;28;20292;-59
2024/01/31 06:51:50;;;;;;;18.08;4.20;;;;;;;17.23;53.45;103094.31;10414415;28;20033;-59
2024/01/31 06:56:51;;;;;;;18.63;3.28;;;;;;;17.31;53.80;103128.06;10413061;28;20025;-59
2024/01/31 07:01:51;;;;;;;21.30;4.10;;;;;;;17.27;53.42;103153.66;10414065;28;20697;-60
2024/01/31 07:06:51;;;;;;;18.57;2.90;;;;;;;17.18;54.05;103169.28;10412625;28;20524;-61
2024/01/31 07:11:52;;;;;;;16.67;3.47;;;;;;;17.17;52.67;103181.03;10453687;28;20275;-60
2024/01/31 07:16:52;;;;;;;14.47;3.30;;;;;;;17.18;53.41;103191.53;10454968;28;20083;-60
2024/01/31 07:21:53;;;;;;;7.97;2.63;;;;;;;17.13;52.73;103191.38;10453888;28;20275;-60
2024/01/31 07:26:54;;;;;;;13.77;2.72;;;;;;;17.13;53.45;103202.09;10450479;28;20330;-59
2024/01/31 07:31:54;;;;;;;12.07;2.10;;;;;;;17.10;53.37;103213.28;10458358;28;20604;-60
2024/01/31 07:36:54;;;;;;;7.05;1.98;;;;;;;17.12;53.16;103211.19;10412807;28;20022;-59
2024/01/31 07:41:55;;;;;;;11.80;1.93;;;;;;;17.11;52.20;103212.22;10412577;28;20022;-60
2024/01/31 07:46:55;;;;;;;8.23;1.40;;;;;;;17.11;53.18;103214.91;10411597;28;20624;-60
2024/01/31 07:51:57;;;;;;;3.97;1.30;;;;;;;17.12;52.68;103211.19;10411839;28;20504;-60
2024/01/31 07:56:57;;;;;;;14.32;2.25;;;;;;;17.15;52.60;103212.59;10410991;28;20276;-60
2024/01/31 08:01:58;;;;;;;7.43;2.15;;;;;;;17.16;53.01;103203.50;10411725;28;20457;-60
2024/01/31 08:06:58;;;;;;;5.10;1.30;;;;;;;17.18;51.84;103209.47;10412004;28;20040;-60
2024/01/31 08:11:58;;;;;;;7.15;1.75;;;;;;;17.18;51.51;103183.50;10421847;28;20338;-60
2024/01/31 08:16:59;;;;;;;8.90;1.30;;;;;;;17.19;52.79;103192.34;10409599;28;20107;-60
2024/01/31 08:21:59;;;;;;;4.97;1.37;;;;;;;17.22;51.81;103197.25;10409977;28;20272;-59
2024/01/31 08:26:59;;;;;;;8.48;1.40;;;;;;;17.19;51.84;103195.03;10410173;28;20342;-60
2024/01/31 08:32:00;;;;;;;6.38;1.92;;;;;;;17.16;52.50;103184.75;10409853;28;20037;-60
2024/01/31 08:37:01;;;;;;;5.80;1.42;;;;;;;17.11;52.03;103188.09;10409446;28;20484;-60
2024/01/31 08:42:01;;;;;;;6.25;1.40;;;;;;;17.15;52.46;103170.53;10409243;28;20048;-61
2024/01/31 08:47:02;;;;;;;5.88;1.80;;;;;;;17.19;52.32;103165.53;10407701;28;20144;-61
2024/01/31 08:52:02;;;;;;;5.25;1.55;;;;;;;17.19;52.74;103163.69;10408925;28;20039;-62
2024/01/31 08:57:03;;;;;;;2.83;1.20;;;;;;;17.17;51.96;103155.06;10408653;28;20036;-61
2024/01/31 09:02:03;;;;;;;7.63;1.17;;;;;;;17.14;52.75;103143.94;10407057;28;20029;-61
2024/01/31 09:07:04;;;;;;;4.57;1.77;;;;;;;17.13;51.66;103132.41;10409805;28;20459;-60
2024/01/31 09:12:05;;;;;;;3.10;1.00;;;;;;;17.10;51.57;103122.13;10418973;28;20036;-62
2024/01/31 09:17:06;;;;;;;4.45;1.67;;;;;;;17.23;51.59;103119.28;10444936;28;20073;-58
2024/01/31 09:22:06;;;;;;;8.02;1.23;;;;;;;17.17;52.58;103112.16;10448882;28;20024;-60
2024/01/31 09:27:07;;;;;;;6.28;1.63;;;;;;;17.17;54.08;103114.03;10447063;28;20025;-60
2024/01/31 09:32:07;;;;;;;6.43;2.00;;;;;;;17.21;54.94;103112.50;10428900;28;20041;-57
2024/01/31 09:37:08;;;;;;;11.77;1.70;;;;;;;17.16;55.77;103109.69;10408002;28;20104;-60
2024/01/31 09:42:08;;;;;;;8.23;1.58;;;;;;;17.15;54.64;103102.69;10407664;28;20355;-59
2024/01/31 09:47:10;;;;;;;6.25;1.83;;;;;;;17.13;54.68;103102.91;10407851;28;20018;-60
2024/01/31 09:52:11;;;;;;;11.13;1.77;;;;;;;17.10;55.01;103115.97;10406227;28;20385;-59
2024/01/31 09:57:12;;;;;;;5.90;1.90;;;;;;;17.06;55.12;103120.16;10420379;28;20017;-60
2024/01/31 10:02:13;;;;;;;3.35;1.00;;;;;;;17.05;55.45;103108.59;10406798;28;20022;-60
2024/01/31 10:07:22;;;;;;;7.40;1.23;;;;;;;17.07;55.71;103117.25;10410267;28;20037;-60
2024/01/31 10:12:23;;;;;;;3.65;1.50;;;;;;;17.05;53.95;103116.66;10413778;28;20033;-59
2024/01/31 10:17:23;;;;;;;3.33;1.15;;;;;;;17.04;55.21;103131.06;10405539;28;20104;-60
2024/01/31 10:22:24;;;;;;;4.00;1.38;;;;;;;17.06;53.80;103120.97;10407070;28;20400;-60
2024/01/31 10:27:24;;;;;;;7.45;1.60;;;;;;;17.09;55.33;103114.31;10407152;28;20032;-58
2024/01/31 10:32:25;;;;;;;10.25;1.50;;;;;;;17.06;54.58;103133.56;10406805;28;20254;-58
2024/01/31 10:37:26;;;;;;;8.00;1.40;;;;;;;17.10;54.64;103122.13;10407945;28;20091;-58
2024/01/31 10:42:26;;;;;;;5.55;1.45;;;;;;;17.14;53.97;103123.31;10427587;28;20382;-58
2024/01/31 10:47:27;;;;;;;5.70;2.15;;;;;;;17.12;52.80;103119.22;10427597;28;20469;-58
2024/01/31 10:52:30;;;;;;;8.33;2.13;;;;;;;17.12;53.66;103100.47;10413393;28;20029;-58
2024/01/31 10:57:31;;;;;;;3.90;1.70;;;;;;;17.16;53.69;103086.38;10412871;28;20275;-58
2024/01/31 11:02:32;;;;;;;4.10;1.58;;;;;;;17.13;52.44;103081.47;10412003;28;20401;-58
2024/01/31 11:07:43;;;;;;;4.13;1.50;;;;;;;17.13;53.16;103075.28;10420181;28;20036;-58
2024/01/31 11:12:43;;;;;;;5.97;2.08;;;;;;;17.09;53.44;103066.91;10417924;28;20368;-59
2024/01/31 11:17:45;;;;;;;10.43;4.00;;;;;;;17.19;53.03;103047.56;10427536;28;20373;-56
2024/01/31 11:22:45;;;;;;;9.25;3.65;;;;;;;17.30;53.20;103030.72;10411885;28;20022;-58
2024/01/31 11:27:45;;;;;;;8.10;3.40;;;;;;;17.48;53.22;103011.00;10411989;28;20033;-58
2024/01/31 11:32:46;;;;;;;8.90;3.72;;;;;;;17.55;52.08;103009.03;10411892;28;20393;-58
2024/01/31 11:37:46;;;;;;;11.63;3.57;;;;;;;17.56;52.53;102975.00;10432299;28;20376;-60
2024/01/31 11:42:47;;;;;;;8.40;4.13;;;;;;;17.57;53.77;102966.69;10441694;28;20283;-60
2024/01/31 11:47:48;;;;;;;10.35;3.80;;;;;;;17.64;52.09;102950.47;10437908;28;20359;-60
2024/01/31 11:52:49;;;;;;;7.75;3.83;;;;;;;17.69;53.31;102938.03;10448810;28;20586;-59
2024/01/31 11:57:50;;;;;;;17.55;4.75;;;;;;;17.66;52.10;102927.75;10450778;28;20029;-57
2024/01/31 12:02:50;;;;;;;9.35;4.28;;;;;;;17.67;52.94;102925.88;10430833;28;20025;-59
2024/01/31 12:07:57;;;;;;;8.52;4.43;;;;;;;17.61;52.41;102927.63;10435145;28;20035;-59
2024/01/31 12:13:00;;;;;;;6.40;4.43;;;;;;;17.61;53.38;102913.38;10428274;28;20076;-56
2024/01/31 12:18:00;;;;;;;7.60;4.32;;;;;;;17.65;53.03;102903.84;10392193;28;20040;-58
2024/01/31 12:23:01;;;;;;;6.47;3.53;;;;;;;17.60;52.41;102888.44;10407713;28;20159;-58
2024/01/31 12:28:01;;;;;;;7.83;4.10;;;;;;;17.58;52.00;102892.41;10408289;28;20018;-57
2024/01/31 12:33:02;;;;;;;9.67;4.60;;;;;;;17.54;53.15;102886.72;10426170;28;20272;-57
2024/01/31 12:38:03;;;;;;;8.13;4.95;;;;;;;17.56;53.08;102873.88;10409406;28;20346;-58
2024/01/31 12:43:04;;;;;;;6.80;4.07;;;;;;;17.63;53.29;102871.84;10408031;28;20606;-58
2024/01/31 12:48:05;;;;;;;7.53;4.82;;;;;;;17.58;52.91;102873.63;10409492;28;20489;-57
2024/01/31 12:53:05;;;;;;;10.85;6.18;;;;;;;17.62;53.44;102872.91;10409155;28;20155;-57
2024/01/31 12:58:06;;;;;;;9.63;4.73;;;;;;;17.61;53.43;102873.16;10409066;28;20071;-58
2024/01/31 13:03:07;;;;;;;7.63;4.97;;;;;;;17.42;52.72;102865.25;10407372;28;20334;-55
2024/01/31 13:08:07;;;;;;;7.18;4.32;;;;;;;17.31;52.71;102851.88;10418978;28;20287;-57
2024/01/31 13:13:08;;;;;;;7.73;5.13;;;;;;;17.23;52.52;102847.66;10410230;28;20164;-54
2024/01/31 13:18:10;;;;;;;12.02;5.70;;;;;;;17.18;53.13;102844.88;10408441;28;20304;-54
2024/01/31 13:23:10;;;;;;;8.73;5.13;;;;;;;17.23;53.23;102840.44;10407530;28;20117;-57
2024/01/31 13:28:14;;;;;;;14.35;5.18;;;;;;;17.25;53.52;102838.34;10411744;28;20290;-56
2024/01/31 13:33:14;;;;;;;14.80;4.80;;;;;;;17.28;54.06;102823.63;10407530;28;20274;-55
2024/01/31 13:38:14;;;;;;;13.00;4.90;;;;;;;17.27;54.29;102813.16;10411646;28;20432;-56
2024/01/31 13:43:15;;;;;;;12.37;4.33;;;;;;;17.27;54.14;102808.59;10412784;28;20274;-56
2024/01/31 13:48:15;;;;;;;19.63;4.70;;;;;;;17.24;53.41;102807.22;10426196;28;20295;-57
2024/01/31 13:53:15;;;;;;;9.37;3.87;;;;;;;17.13;53.74;102802.69;10445456;28;20780;-57
2024/01/31 13:58:16;;;;;;;8.33;3.67;;;;;;;17.13;53.54;102794.63;10448187;28;20275;-57
2024/01/31 14:03:16;;;;;;;8.77;3.83;;;;;;;17.14;54.13;102780.19;10447919;28;20283;-58
2024/01/31 14:08:16;;;;;;;8.67;4.10;;;;;;;17.14;52.74;102761.41;10448449;28;20287;-57
2024/01/31 14:13:17;;;;;;;10.33;3.70;;;;;;;17.13;53.65;102767.03;10409772;28;20383;-57
2024/01/31 14:18:17;;;;;;;13.13;3.67;;;;;;;17.15;53.61;102762.22;10415447;28;20801;-57
2024/01/31 14:23:17;;;;;;;7.03;2.90;;;;;;;17.18;52.29;102751.88;10414809;28;20029;-57
2024/01/31 14:28:17;;;;;;;8.00;2.90;;;;;;;17.19;52.05;102744.66;10414444;28;20291;-58
2024/01/31 14:33:18;;;;;;;9.70;3.60;;;;;;;17.17;52.48;102723.44;10439976;28;20323;-58
2024/01/31 14:38:18;;;;;;;5.77;3.07;;;;;;;17.18;52.72;102708.16;10413298;28;20279;-56
2024/01/31 14:43:18;;;;;;;5.67;2.37;;;;;;;17.19;52.74;102705.25;10413442;28;20627;-58
2024/01/31 14:48:20;;;;;;;6.60;2.80;;;;;;;17.18;52.56;102697.44;10414190;28;21123;-56
2024/01/31 14:53:20;;;;;;;6.22;2.70;;;;;;;17.19;52.79;102707.94;10413330;28;20479;-57
2024/01/31 14:58:20;;;;;;;5.20;2.47;;;;;;;17.22;52.71;102720.84;10413414;28;20472;-58
2024/01/31 15:03:21;;;;;;;14.53;3.47;;;;;;;17.19;51.82;102710.59;10411902;28;20303;-57
2024/01/31 15:08:21;;;;;;;6.63;2.60;;;;;;;17.21;52.42;102715.72;10425208;28;20333;-57
2024/01/31 15:13:22;;;;;;;9.53;4.00;;;;;;;17.18;52.19;102703.63;10411725;28;20296;-57
2024/01/31 15:18:22;;;;;;;4.50;2.55;;;;;;;17.18;52.37;102687.53;10412905;28;20330;-56
2024/01/31 15:23:22;;;;;;;8.23;2.87;;;;;;;17.18;52.32;102676.81;10412280;28;20436;-57
2024/01/31 15:28:22;;;;;;;9.23;2.63;;;;;;;17.16;51.88;102675.41;10411261;28;20346;-57
2024/01/31 15:33:23;;;;;;;10.13;3.10;;;;;;;17.18;53.02;102682.19;10447441;28;20690;-57
2024/01/31 15:38:23;;;;;;;9.35;3.13;;;;;;;17.20;52.76;102668.53;10428096;28;20279;-58
2024/01/31 15:43:24;;;;;;;15.98;4.32;;;;;;;17.19;52.50;102661.53;10450289;28;20476;-57
2024/01/31 15:48:24;;;;;;;13.63;4.07;;;;;;;17.30;51.88;102660.69;10451049;28;20025;-57
2024/01/31 15:53:24;;;;;;;11.70;3.53;;;;;;;17.31;52.83;102664.19;10413920;28;20275;-56
2024/01/31 15:58:25;;;;;;;24.40;3.20;;;;;;;17.36;52.81;102673.13;10420785;28;20925;-56
2024/01/31 16:03:25;;;;;;;27.80;7.32;;;;;;;17.37;52.97;102661.34;10419747;28;20342;-59
2024/01/31 16:08:26;;;;;;;13.43;3.95;;;;;;;17.22;52.49;102647.66;10423250;28;20049;-57
2024/01/31 16:13:26;;;;;;;21.07;4.17;;;;;;;17.20;53.50;102641.72;10410190;28;20378;-56
2024/01/31 16:18:28;;;;;;;16.17;3.20;;;;;;;17.17;53.73;102624.25;10408625;28;20268;-57
2024/01/31 16:23:32;;;;;;;11.93;5.38;;;;;;;17.31;52.85;102621.28;10418107;28;20621;-55
2024/01/31 16:28:32;;;;;;;14.57;5.20;;;;;;;17.40;56.07;102631.34;10432620;28;20029;-55
2024/01/31 16:33:33;;;;;;;14.73;4.70;;;;;;;17.42;51.73;102620.41;10430415;28;20445;-54
2024/01/31 16:38:33;;;;;;;11.32;4.13;;;;;;;17.32;51.87;102617.53;10436389;28;20268;-55
2024/01/31 16:43:33;;;;;;;14.38;4.93;;;;;;;17.31;51.61;102599.84;10450576;28;20025;-55
2024/01/31 16:48:34;;;;;;;13.90;4.50;;;;;;;17.29;51.70;102591.22;10449760;28;20090;-57
2024/01/31 16:53:34;;;;;;;14.70;6.30;;;;;;;17.30;55.13;102579.44;10450231;28;20329;-55
2024/01/31 16:58:34;;;;;;;8.63;4.67;;;;;;;17.45;54.77;102561.75;10450134;28;20352;-55
2024/01/31 17:03:36;;;;;;;15.93;6.40;;;;;;;17.54;52.60;102546.06;10447608;28;20336;-53
2024/01/31 17:08:36;;;;;;;15.00;4.47;;;;;;;17.64;54.24;102535.50;10445661;28;20283;-55
2024/01/31 17:13:36;;;;;;;14.30;4.88;;;;;;;17.64;53.31;102522.09;10406056;28;20038;-54
2024/01/31 17:18:37;;;;;;;18.42;4.28;;;;;;;17.59;53.54;102532.72;10406796;28;20029;-55
2024/01/31 17:23:45;;;;;;;12.70;3.97;;;;;;;17.50;53.98;102520.75;10406428;28;20083;-58
2024/01/31 17:28:45;;;;;;;13.48;4.07;;;;;;;17.47;52.91;102527.44;10405121;28;20307;-57
2024/01/31 17:33:45;;;;;;;14.90;3.80;;;;;;;17.51;54.00;102539.28;10419510;28;20515;-57
2024/01/31 17:38:46;;;;;;;9.40;3.73;;;;;;;17.55;52.69;102545.00;10405367;28;20294;-58
2024/01/31 17:43:46;;;;;;;10.73;4.20;;;;;;;17.55;52.15;102555.72;10406750;28;20808;-57
2024/01/31 17:48:46;;;;;;;11.77;3.33;;;;;;;17.59;51.98;102545.31;10408896;28;20296;-58
2024/01/31 17:53:47;;;;;;;14.73;3.78;;;;;;;17.59;51.70;102542.63;10417170;28;20282;-57
2024/01/31 17:58:48;;;;;;;9.07;3.35;;;;;;;17.52;53.14;102558.88;10414115;28;20048;-57
2024/01/31 18:03:48;;;;;;;12.25;3.50;;;;;;;17.50;52.86;102544.91;10413398;28;20028;-58
2024/01/31 18:08:48;;;;;;;8.70;3.10;;;;;;;17.49;53.26;102536.03;10424311;28;20206;-56
2024/01/31 18:13:49;;;;;;;11.70;3.40;;;;;;;17.47;52.26;102518.59;10412587;28;20356;-57
2024/01/31 18:18:50;;;;;;;12.43;3.38;;;;;;;17.45;53.07;102508.09;10412841;28;20276;-57
2024/01/31 18:23:52;;;;;;;11.93;3.40;;;;;;;17.42;52.34;102507.78;10413325;28;20034;-57
2024/01/31 18:28:53;;;;;;;9.77;3.00;;;;;;;17.34;52.62;102506.31;10412654;28;20770;-56
2024/01/31 18:33:54;;;;;;;8.38;3.45;;;;;;;17.35;52.54;102488.34;10434032;28;20095;-56
2024/01/31 18:38:55;;;;;;;13.90;2.88;;;;;;;17.32;52.89;102478.94;10449979;28;20036;-58
2024/01/31 18:43:56;;;;;;;9.87;3.00;;;;;;;17.31;52.39;102465.78;10425635;28;20384;-58
2024/01/31 18:48:57;;;;;;;7.57;2.45;;;;;;;17.28;52.63;102453.66;10414646;28;20353;-57
2024/01/31 18:53:57;;;;;;;10.17;2.90;;;;;;;17.26;52.41;102442.38;10429877;28;20017;-58
2024/01/31 18:58:58;;;;;;;8.38;2.65;;;;;;;17.24;51.73;102428.41;10418177;28;20616;-57
2024/01/31 19:03:58;;;;;;;6.28;3.10;;;;;;;17.24;53.21;102413.13;10418622;28;20025;-57
2024/01/31 19:08:58;;;;;;;9.20;2.63;;;;;;;17.25;52.58;102405.88;10426645;28;20060;-57
2024/01/31 19:13:59;;;;;;;5.23;2.60;;;;;;;17.25;52.94;102403.22;10428646;28;20656;-57
2024/01/31 19:19:00;;;;;;;7.15;2.97;;;;;;;17.31;51.89;102390.72;10430811;28;20272;-57
2024/01/31 19:24:00;;;;;;;7.30;2.53;;;;;;;17.28;52.81;102388.50;10431694;28;20175;-57
2024/01/31 19:29:00;;;;;;;7.37;2.67;;;;;;;17.34;51.82;102380.28;10444864;28;20631;-57
2024/01/31 19:34:01;;;;;;;9.17;2.57;;;;;;;17.37;52.08;102369.06;10443477;28;20294;-57
2024/01/31 19:39:01;;;;;;;7.80;2.72;;;;;;;17.34;52.01;102372.25;10424872;28;20628;-56
2024/01/31 19:44:02;;;;;;;5.57;2.23;;;;;;;17.24;53.23;102345.28;10429913;28;20013;-56
2024/01/31 19:49:03;;;;;;;6.03;2.58;;;;;;;17.26;51.72;102361.94;10420337;28;20292;-55
2024/01/31 19:54:03;;;;;;;5.23;2.50;;;;;;;17.23;52.75;102373.16;10412384;28;20029;-56
2024/01/31 19:59:03;;;;;;;5.07;2.80;;;;;;;17.21;53.11;102354.66;10452147;28;20283;-56
2024/01/31 20:04:04;;;;;;;8.50;2.50;;;;;;;17.24;52.69;102331.88;10453284;28;20148;-55
2024/01/31 20:09:04;;;;;;;8.05;2.05;;;;;;;17.24;52.08;102310.44;10437606;28;20374;-56
2024/01/31 20:14:08;;;;;;;4.87;2.00;;;;;;;17.24;52.30;102303.22;10430039;28;20167;-55
2024/01/31 20:19:08;;;;;;;6.55;2.63;;;;;;;17.25;52.47;102302.16;10427752;28;20397;-55
2024/01/31 20:24:09;;;;;;;4.17;2.33;;;;;;;17.23;52.90;102292.75;10426894;28;20021;-56
2024/01/31 20:29:09;;;;;;;5.10;2.10;;;;;;;17.22;51.63;102294.63;10410665;28;20354;-55
2024/01/31 20:34:10;;;;;;;5.00;2.22;;;;;;;17.19;53.23;102291.63;10441185;28;20519;-55
2024/01/31 20:39:10;;;;;;;7.03;2.73;;;;;;;17.17;51.78;102286.50;10430068;28;20108;-55
2024/01/31 20:44:10;;;;;;;3.60;2.10;;;;;;;17.14;51.94;102299.59;10435276;28;20279;-57
2024/01/31 20:49:11;;;;;;;8.47;2.87;;;;;;;17.13;52.65;102281.88;10450481;28;20298;-56
2024/01/31 20:54:11;;;;;;;3.23;2.20;;;;;;;17.15;51.15;102288.59;10451129;28;20623;-55
2024/01/31 20:59:12;;;;;;;5.68;2.22;;;;;;;17.16;51.19;102289.41;10450651;28;20299;-56
2024/01/31 21:04:12;;;;;;;3.70;1.70;;;;;;;17.18;51.82;102285.44;10447052;28;20083;-56
2024/01/31 21:09:12;;;;;;;6.87;2.30;;;;;;;17.18;52.10;102282.78;10419683;28;20070;-55
2024/01/31 21:14:13;;;;;;;5.83;2.30;;;;;;;17.19;51.58;102287.06;10409306;28;20315;-56
2024/01/31 21:19:13;;;;;;;6.43;3.22;;;;;;;17.20;51.93;102283.34;10409197;28;20272;-56
2024/01/31 21:24:13;;;;;;;4.65;2.15;;;;;;;17.22;51.31;102270.50;10408609;28;20051;-56
2024/01/31 21:29:14;;;;;;;3.40;1.73;;;;;;;17.25;51.60;102264.63;10408906;28;20660;-56
2024/01/31 21:34:14;;;;;;;3.67;1.67;;;;;;;17.24;51.54;102265.69;10409545;28;20366;-56
2024/01/31 21:39:15;;;;;;;3.20;1.70;;;;;;;17.23;50.37;102258.69;10407290;28;20029;-55
2024/01/31 21:44:16;;;;;;;2.38;1.80;;;;;;;17.24;50.43;102249.59;10409018;28;20512;-56
2024/01/31 21:49:16;;;;;;;4.40;2.05;;;;;;;17.29;51.64;102258.78;10408322;28;20116;-56
2024/01/31 21:54:16;;;;;;;4.23;1.47;;;;;;;17.27;51.73;102250.16;10408972;28;20167;-56
2024/01/31 21:59:17;;;;;;;4.37;1.97;;;;;;;17.27;51.61;102244.78;10408129;28;20322;-56
2024/01/31 22:04:17;;;;;;;3.38;1.52;;;;;;;17.24;51.91;102238.88;10405879;28;20292;-57
2024/01/31 22:09:18;;;;;;;3.83;1.50;;;;;;;17.26;51.72;102227.91;10419866;28;20369;-56
2024/01/31 22:14:18;;;;;;;3.58;1.52;;;;;;;17.27;51.73;102224.16;10407725;28;20292;-57
2024/01/31 22:19:18;;;;;;;2.38;1.63;;;;;;;17.22;50.39;102221.44;10408402;28;20033;-57
2024/01/31 22:24:19;;;;;;;3.80;1.90;;;;;;;17.23;50.70;102213.13;10408231;28;20544;-57
2024/01/31 22:29:19;;;;;;;2.80;1.67;;;;;;;17.24;51.73;102205.91;10407614;28;20041;-56
2024/01/31 22:34:19;;;;;;;3.57;1.63;;;;;;;17.27;51.06;102188.50;10410987;28;20996;-57
2024/01/31 22:39:20;;;;;;;3.23;1.57;;;;;;;17.26;50.50;102190.38;10415010;28;20267;-57
2024/01/31 22:44:21;;;;;;;3.60;1.75;;;;;;;17.25;51.74;102184.19;10415381;28;20280;-57
2024/01/31 22:49:22;;;;;;;2.80;1.77;;;;;;;17.25;50.14;102192.25;10414529;28;20033;-57
2024/01/31 22:54:23;;;;;;;3.67;1.23;;;;;;;17.27;50.98;102183.94;10414883;28;20036;-56